sensor_id;sensor_type;location;lat;lon;timestamp;temperature;humidity
66035;HTU21D;52805;51.074;5.842;2023-02-11T00:01:19;7.60;78.92
66035;HTU21D;52805;51.074;5.842;2023-02-11T00:03:45;7.58;78.97
66035;HTU21D;52805;51.074;5.842;2023-02-11T00:06:11;7.56;78.99
66035;HTU21D;52805;51.074;5.842;2023-02-11T00:08:37;7.55;78.96
66035;HTU21D;52805;51.074;5.842;2023-02-11T00:11:03;7.52;79.06
66035;HTU21D;52805;51.074;5.842;2023-02-11T00:13:29;7.52;78.98
66035;HTU21D;52805;51.074;5.842;2023-02-11T00:15:55;7.50;79.01
66035;HTU21D;52805;51.074;5.842;2023-02-11T00:18:21;7.47;79.16
66035;HTU21D;52805;51.074;5.842;2023-02-11T00:20:48;7.45;79.25
66035;HTU21D;52805;51.074;5.842;2023-02-11T00:23:14;7.45;79.20
66035;HTU21D;52805;51.074;5.842;2023-02-11T00:25:41;7.44;79.17
66035;HTU21D;52805;51.074;5.842;2023-02-11T00:28:09;7.41;79.33
66035;HTU21D;52805;51.074;5.842;2023-02-11T00:30:35;7.39;79.40
66035;HTU21D;52805;51.074;5.842;2023-02-11T00:33:01;7.41;79.41
66035;HTU21D;52805;51.074;5.842;2023-02-11T00:35:27;7.44;79.43
66035;HTU21D;52805;51.074;5.842;2023-02-11T00:37:54;7.46;79.50
66035;HTU21D;52805;51.074;5.842;2023-02-11T00:40:20;7.50;79.51
66035;HTU21D;52805;51.074;5.842;2023-02-11T00:42:46;7.54;79.47
66035;HTU21D;52805;51.074;5.842;2023-02-11T00:45:12;7.56;79.48
66035;HTU21D;52805;51.074;5.842;2023-02-11T00:47:38;7.57;79.46
66035;HTU21D;52805;51.074;5.842;2023-02-11T00:50:05;7.58;79.36
66035;HTU21D;52805;51.074;5.842;2023-02-11T00:52:31;7.62;79.39
66035;HTU21D;52805;51.074;5.842;2023-02-11T00:54:57;7.61;79.49
66035;HTU21D;52805;51.074;5.842;2023-02-11T00:57:23;7.62;79.46
66035;HTU21D;52805;51.074;5.842;2023-02-11T00:59:49;7.58;79.57
66035;HTU21D;52805;51.074;5.842;2023-02-11T01:02:15;7.60;79.59
66035;HTU21D;52805;51.074;5.842;2023-02-11T01:04:42;7.55;79.56
66035;HTU21D;52805;51.074;5.842;2023-02-11T01:07:08;7.55;79.63
66035;HTU21D;52805;51.074;5.842;2023-02-11T01:09:37;7.50;79.74
66035;HTU21D;52805;51.074;5.842;2023-02-11T01:12:04;7.45;79.90
66035;HTU21D;52805;51.074;5.842;2023-02-11T01:14:31;7.44;79.96
66035;HTU21D;52805;51.074;5.842;2023-02-11T01:16:57;7.41;80.10
66035;HTU21D;52805;51.074;5.842;2023-02-11T01:19:22;7.42;80.11
66035;HTU21D;52805;51.074;5.842;2023-02-11T01:21:48;7.40;80.14
66035;HTU21D;52805;51.074;5.842;2023-02-11T01:24:14;7.39;80.17
66035;HTU21D;52805;51.074;5.842;2023-02-11T01:26:42;7.40;80.12
66035;HTU21D;52805;51.074;5.842;2023-02-11T01:29:07;7.38;80.24
66035;HTU21D;52805;51.074;5.842;2023-02-11T01:31:33;7.35;80.36
66035;HTU21D;52805;51.074;5.842;2023-02-11T01:34:00;7.35;80.42
66035;HTU21D;52805;51.074;5.842;2023-02-11T01:36:25;7.39;80.41
66035;HTU21D;52805;51.074;5.842;2023-02-11T01:38:51;7.38;80.39
66035;HTU21D;52805;51.074;5.842;2023-02-11T01:41:19;7.40;80.30
66035;HTU21D;52805;51.074;5.842;2023-02-11T01:43:48;7.35;80.33
66035;HTU21D;52805;51.074;5.842;2023-02-11T01:46:33;7.32;80.46
66035;HTU21D;52805;51.074;5.842;2023-02-11T01:49:13;7.33;80.39
66035;HTU21D;52805;51.074;5.842;2023-02-11T01:51:58;7.27;80.60
66035;HTU21D;52805;51.074;5.842;2023-02-11T01:54:30;7.22;80.81
66035;HTU21D;52805;51.074;5.842;2023-02-11T01:57:18;7.20;80.85
66035;HTU21D;52805;51.074;5.842;2023-02-11T02:02:53;7.22;80.85
66035;HTU21D;52805;51.074;5.842;2023-02-11T02:11:05;7.15;80.97
66035;HTU21D;52805;51.074;5.842;2023-02-11T02:13:33;7.15;81.06
66035;HTU21D;52805;51.074;5.842;2023-02-11T02:16:12;7.16;81.15
66035;HTU21D;52805;51.074;5.842;2023-02-11T02:27:31;7.26;81.27
66035;HTU21D;52805;51.074;5.842;2023-02-11T02:38:27;7.35;81.32
66035;HTU21D;52805;51.074;5.842;2023-02-11T02:41:07;7.37;81.33
66035;HTU21D;52805;51.074;5.842;2023-02-11T02:43:40;7.39;81.45
66035;HTU21D;52805;51.074;5.842;2023-02-11T02:46:11;7.45;81.30
66035;HTU21D;52805;51.074;5.842;2023-02-11T02:48:37;7.41;81.43
66035;HTU21D;52805;51.074;5.842;2023-02-11T02:54:28;7.47;81.24
66035;HTU21D;52805;51.074;5.842;2023-02-11T02:59:56;7.53;81.25
66035;HTU21D;52805;51.074;5.842;2023-02-11T03:02:35;7.50;81.20
66035;HTU21D;52805;51.074;5.842;2023-02-11T03:08:11;7.50;81.20
66035;HTU21D;52805;51.074;5.842;2023-02-11T03:10:44;7.49;81.23
66035;HTU21D;52805;51.074;5.842;2023-02-11T03:13:13;7.48;81.39
66035;HTU21D;52805;51.074;5.842;2023-02-11T03:15:49;7.46;81.52
66035;HTU21D;52805;51.074;5.842;2023-02-11T03:18:21;7.52;81.53
66035;HTU21D;52805;51.074;5.842;2023-02-11T03:20:50;7.55;81.49
66035;HTU21D;52805;51.074;5.842;2023-02-11T03:28:48;7.61;81.34
66035;HTU21D;52805;51.074;5.842;2023-02-11T03:36:43;7.63;81.16
66035;HTU21D;52805;51.074;5.842;2023-02-11T03:39:18;7.57;81.46
66035;HTU21D;52805;51.074;5.842;2023-02-11T03:41:47;7.57;81.52
66035;HTU21D;52805;51.074;5.842;2023-02-11T03:44:16;7.59;81.47
66035;HTU21D;52805;51.074;5.842;2023-02-11T03:46:48;7.61;81.35
66035;HTU21D;52805;51.074;5.842;2023-02-11T03:49:19;7.60;81.38
66035;HTU21D;52805;51.074;5.842;2023-02-11T03:51:50;7.60;81.28
66035;HTU21D;52805;51.074;5.842;2023-02-11T03:54:25;7.61;81.27
66035;HTU21D;52805;51.074;5.842;2023-02-11T03:56:56;7.56;81.51
66035;HTU21D;52805;51.074;5.842;2023-02-11T03:59:22;7.58;81.53
66035;HTU21D;52805;51.074;5.842;2023-02-11T04:01:48;7.57;81.47
66035;HTU21D;52805;51.074;5.842;2023-02-11T04:04:13;7.58;81.64
66035;HTU21D;52805;51.074;5.842;2023-02-11T04:06:39;7.57;81.62
66035;HTU21D;52805;51.074;5.842;2023-02-11T04:09:05;7.62;81.47
66035;HTU21D;52805;51.074;5.842;2023-02-11T04:11:31;7.60;81.51
66035;HTU21D;52805;51.074;5.842;2023-02-11T04:13:57;7.57;81.62
66035;HTU21D;52805;51.074;5.842;2023-02-11T04:16:22;7.58;81.66
66035;HTU21D;52805;51.074;5.842;2023-02-11T04:18:48;7.59;81.63
66035;HTU21D;52805;51.074;5.842;2023-02-11T04:21:14;7.57;81.72
66035;HTU21D;52805;51.074;5.842;2023-02-11T04:23:39;7.57;81.89
66035;HTU21D;52805;51.074;5.842;2023-02-11T04:26:05;7.59;81.96
66035;HTU21D;52805;51.074;5.842;2023-02-11T04:28:31;7.56;82.10
66035;HTU21D;52805;51.074;5.842;2023-02-11T04:30:57;7.60;82.01
66035;HTU21D;52805;51.074;5.842;2023-02-11T04:33:23;7.58;82.10
66035;HTU21D;52805;51.074;5.842;2023-02-11T04:35:49;7.58;82.21
66035;HTU21D;52805;51.074;5.842;2023-02-11T04:38:15;7.63;82.06
66035;HTU21D;52805;51.074;5.842;2023-02-11T04:40:41;7.63;82.13
66035;HTU21D;52805;51.074;5.842;2023-02-11T04:43:07;7.62;82.15
66035;HTU21D;52805;51.074;5.842;2023-02-11T04:45:33;7.61;82.26
66035;HTU21D;52805;51.074;5.842;2023-02-11T04:48:01;7.62;82.33
66035;HTU21D;52805;51.074;5.842;2023-02-11T04:50:27;7.64;82.13
66035;HTU21D;52805;51.074;5.842;2023-02-11T04:52:53;7.64;82.30
66035;HTU21D;52805;51.074;5.842;2023-02-11T04:55:18;7.67;82.24
66035;HTU21D;52805;51.074;5.842;2023-02-11T04:57:44;7.63;82.59
66035;HTU21D;52805;51.074;5.842;2023-02-11T05:00:10;7.70;82.39
66035;HTU21D;52805;51.074;5.842;2023-02-11T05:02:36;7.65;82.45
66035;HTU21D;52805;51.074;5.842;2023-02-11T05:05:02;7.68;82.40
66035;HTU21D;52805;51.074;5.842;2023-02-11T05:07:28;7.63;82.68
66035;HTU21D;52805;51.074;5.842;2023-02-11T05:09:53;7.64;82.65
66035;HTU21D;52805;51.074;5.842;2023-02-11T05:12:19;7.64;82.83
66035;HTU21D;52805;51.074;5.842;2023-02-11T05:14:45;7.60;82.94
66035;HTU21D;52805;51.074;5.842;2023-02-11T05:17:10;7.60;83.13
66035;HTU21D;52805;51.074;5.842;2023-02-11T05:19:36;7.61;83.03
66035;HTU21D;52805;51.074;5.842;2023-02-11T05:22:02;7.63;83.00
66035;HTU21D;52805;51.074;5.842;2023-02-11T05:24:27;7.63;83.07
66035;HTU21D;52805;51.074;5.842;2023-02-11T05:26:53;7.64;83.16
66035;HTU21D;52805;51.074;5.842;2023-02-11T05:29:18;7.68;83.22
66035;HTU21D;52805;51.074;5.842;2023-02-11T05:31:44;7.67;83.29
66035;HTU21D;52805;51.074;5.842;2023-02-11T05:34:10;7.69;83.36
66035;HTU21D;52805;51.074;5.842;2023-02-11T05:36:36;7.71;83.29
66035;HTU21D;52805;51.074;5.842;2023-02-11T05:39:01;7.74;83.03
66035;HTU21D;52805;51.074;5.842;2023-02-11T05:41:27;7.72;83.23
66035;HTU21D;52805;51.074;5.842;2023-02-11T05:43:53;7.74;83.22
66035;HTU21D;52805;51.074;5.842;2023-02-11T05:46:18;7.72;83.40
66035;HTU21D;52805;51.074;5.842;2023-02-11T05:48:44;7.74;83.32
66035;HTU21D;52805;51.074;5.842;2023-02-11T05:51:10;7.76;83.30
66035;HTU21D;52805;51.074;5.842;2023-02-11T05:53:35;7.75;83.48
66035;HTU21D;52805;51.074;5.842;2023-02-11T05:56:01;7.75;83.36
66035;HTU21D;52805;51.074;5.842;2023-02-11T05:58:27;7.73;83.56
66035;HTU21D;52805;51.074;5.842;2023-02-11T06:00:53;7.74;83.54
66035;HTU21D;52805;51.074;5.842;2023-02-11T06:03:19;7.74;83.62
66035;HTU21D;52805;51.074;5.842;2023-02-11T06:05:45;7.76;83.65
66035;HTU21D;52805;51.074;5.842;2023-02-11T06:08:11;7.79;83.60
66035;HTU21D;52805;51.074;5.842;2023-02-11T06:10:36;7.79;83.48
66035;HTU21D;52805;51.074;5.842;2023-02-11T06:13:03;7.78;83.62
66035;HTU21D;52805;51.074;5.842;2023-02-11T06:15:29;7.81;83.62
66035;HTU21D;52805;51.074;5.842;2023-02-11T06:17:55;7.81;83.74
66035;HTU21D;52805;51.074;5.842;2023-02-11T06:20:21;7.82;83.85
66035;HTU21D;52805;51.074;5.842;2023-02-11T06:22:46;7.88;83.57
66035;HTU21D;52805;51.074;5.842;2023-02-11T06:25:12;7.81;83.79
66035;HTU21D;52805;51.074;5.842;2023-02-11T06:27:38;7.81;83.84
66035;HTU21D;52805;51.074;5.842;2023-02-11T06:30:05;7.83;83.92
66035;HTU21D;52805;51.074;5.842;2023-02-11T06:32:31;7.81;84.00
66035;HTU21D;52805;51.074;5.842;2023-02-11T06:34:57;7.84;83.99
66035;HTU21D;52805;51.074;5.842;2023-02-11T06:37:22;7.86;84.00
66035;HTU21D;52805;51.074;5.842;2023-02-11T06:39:48;7.84;84.04
66035;HTU21D;52805;51.074;5.842;2023-02-11T06:42:14;7.85;84.12
66035;HTU21D;52805;51.074;5.842;2023-02-11T06:44:40;7.83;84.16
66035;HTU21D;52805;51.074;5.842;2023-02-11T06:47:06;7.82;84.32
66035;HTU21D;52805;51.074;5.842;2023-02-11T06:49:32;7.84;84.38
66035;HTU21D;52805;51.074;5.842;2023-02-11T06:51:58;7.86;84.39
66035;HTU21D;52805;51.074;5.842;2023-02-11T06:54:24;7.86;84.42
66035;HTU21D;52805;51.074;5.842;2023-02-11T06:56:50;7.84;84.71
66035;HTU21D;52805;51.074;5.842;2023-02-11T06:59:17;7.85;84.67
66035;HTU21D;52805;51.074;5.842;2023-02-11T07:01:44;7.88;84.55
66035;HTU21D;52805;51.074;5.842;2023-02-11T07:04:09;7.87;84.58
66035;HTU21D;52805;51.074;5.842;2023-02-11T07:06:36;7.87;84.73
66035;HTU21D;52805;51.074;5.842;2023-02-11T07:09:03;7.90;84.62
66035;HTU21D;52805;51.074;5.842;2023-02-11T07:11:28;7.87;84.74
66035;HTU21D;52805;51.074;5.842;2023-02-11T07:14:00;7.87;84.97
66035;HTU21D;52805;51.074;5.842;2023-02-11T07:16:26;7.88;85.05
66035;HTU21D;52805;51.074;5.842;2023-02-11T07:18:51;7.92;84.84
66035;HTU21D;52805;51.074;5.842;2023-02-11T07:21:19;7.93;84.97
66035;HTU21D;52805;51.074;5.842;2023-02-11T07:23:46;7.96;84.90
66035;HTU21D;52805;51.074;5.842;2023-02-11T07:26:19;7.98;85.04
66035;HTU21D;52805;51.074;5.842;2023-02-11T07:28:45;8.01;84.87
66035;HTU21D;52805;51.074;5.842;2023-02-11T07:31:21;8.00;84.89
66035;HTU21D;52805;51.074;5.842;2023-02-11T07:33:48;8.02;84.84
66035;HTU21D;52805;51.074;5.842;2023-02-11T07:36:15;8.03;84.93
66035;HTU21D;52805;51.074;5.842;2023-02-11T07:38:41;8.04;84.86
66035;HTU21D;52805;51.074;5.842;2023-02-11T07:41:13;8.07;84.83
66035;HTU21D;52805;51.074;5.842;2023-02-11T07:43:39;8.08;84.84
66035;HTU21D;52805;51.074;5.842;2023-02-11T07:46:09;8.08;84.89
66035;HTU21D;52805;51.074;5.842;2023-02-11T07:48:35;8.11;85.13
66035;HTU21D;52805;51.074;5.842;2023-02-11T07:51:11;8.12;85.08
66035;HTU21D;52805;51.074;5.842;2023-02-11T07:53:38;8.14;85.08
66035;HTU21D;52805;51.074;5.842;2023-02-11T07:56:05;8.15;84.91
66035;HTU21D;52805;51.074;5.842;2023-02-11T07:58:31;8.19;84.92
66035;HTU21D;52805;51.074;5.842;2023-02-11T08:01:06;8.18;84.94
66035;HTU21D;52805;51.074;5.842;2023-02-11T08:03:33;8.19;84.90
66035;HTU21D;52805;51.074;5.842;2023-02-11T08:06:11;8.18;85.00
66035;HTU21D;52805;51.074;5.842;2023-02-11T08:08:37;8.18;85.07
66035;HTU21D;52805;51.074;5.842;2023-02-11T08:11:08;8.21;85.07
66035;HTU21D;52805;51.074;5.842;2023-02-11T08:13:35;8.26;85.04
66035;HTU21D;52805;51.074;5.842;2023-02-11T08:16:02;8.26;85.00
66035;HTU21D;52805;51.074;5.842;2023-02-11T08:18:29;8.26;85.20
66035;HTU21D;52805;51.074;5.842;2023-02-11T08:20:55;8.29;85.11
66035;HTU21D;52805;51.074;5.842;2023-02-11T08:23:20;8.32;85.11
66035;HTU21D;52805;51.074;5.842;2023-02-11T08:25:46;8.33;85.06
66035;HTU21D;52805;51.074;5.842;2023-02-11T08:28:12;8.34;84.98
66035;HTU21D;52805;51.074;5.842;2023-02-11T08:30:38;8.35;85.04
66035;HTU21D;52805;51.074;5.842;2023-02-11T08:33:03;8.41;85.03
66035;HTU21D;52805;51.074;5.842;2023-02-11T08:35:29;8.39;85.00
66035;HTU21D;52805;51.074;5.842;2023-02-11T08:37:55;8.41;85.02
66035;HTU21D;52805;51.074;5.842;2023-02-11T08:40:20;8.43;84.97
66035;HTU21D;52805;51.074;5.842;2023-02-11T08:42:46;8.45;84.92
66035;HTU21D;52805;51.074;5.842;2023-02-11T08:45:12;8.44;84.90
66035;HTU21D;52805;51.074;5.842;2023-02-11T08:47:38;8.46;84.74
66035;HTU21D;52805;51.074;5.842;2023-02-11T08:50:04;8.46;84.80
66035;HTU21D;52805;51.074;5.842;2023-02-11T08:52:30;8.46;84.90
66035;HTU21D;52805;51.074;5.842;2023-02-11T08:54:56;8.50;84.77
66035;HTU21D;52805;51.074;5.842;2023-02-11T08:57:22;8.48;84.89
66035;HTU21D;52805;51.074;5.842;2023-02-11T08:59:47;8.46;84.92
66035;HTU21D;52805;51.074;5.842;2023-02-11T09:02:13;8.47;84.93
66035;HTU21D;52805;51.074;5.842;2023-02-11T09:04:40;8.49;84.85
66035;HTU21D;52805;51.074;5.842;2023-02-11T09:07:06;8.47;84.99
66035;HTU21D;52805;51.074;5.842;2023-02-11T09:09:32;8.49;85.00
66035;HTU21D;52805;51.074;5.842;2023-02-11T09:11:57;8.47;85.23
66035;HTU21D;52805;51.074;5.842;2023-02-11T09:14:25;8.50;85.23
66035;HTU21D;52805;51.074;5.842;2023-02-11T09:16:51;8.51;85.19
66035;HTU21D;52805;51.074;5.842;2023-02-11T09:19:17;8.57;85.12
66035;HTU21D;52805;51.074;5.842;2023-02-11T09:21:43;8.59;85.01
66035;HTU21D;52805;51.074;5.842;2023-02-11T09:24:10;8.63;84.84
66035;HTU21D;52805;51.074;5.842;2023-02-11T09:26:37;8.62;84.87
66035;HTU21D;52805;51.074;5.842;2023-02-11T09:29:03;8.64;85.08
66035;HTU21D;52805;51.074;5.842;2023-02-11T09:31:31;8.70;84.90
66035;HTU21D;52805;51.074;5.842;2023-02-11T09:34:00;8.71;84.94
66035;HTU21D;52805;51.074;5.842;2023-02-11T09:36:30;8.72;84.97
66035;HTU21D;52805;51.074;5.842;2023-02-11T09:38:58;8.75;84.93
66035;HTU21D;52805;51.074;5.842;2023-02-11T09:41:36;8.72;85.02
66035;HTU21D;52805;51.074;5.842;2023-02-11T09:44:07;8.77;84.91
66035;HTU21D;52805;51.074;5.842;2023-02-11T09:46:39;8.75;85.06
66035;HTU21D;52805;51.074;5.842;2023-02-11T09:49:06;8.79;84.97
66035;HTU21D;52805;51.074;5.842;2023-02-11T09:51:46;8.76;84.97
66035;HTU21D;52805;51.074;5.842;2023-02-11T09:54:26;8.78;85.09
66035;HTU21D;52805;51.074;5.842;2023-02-11T09:56:53;8.80;85.12
66035;HTU21D;52805;51.074;5.842;2023-02-11T09:59:19;8.83;85.02
66035;HTU21D;52805;51.074;5.842;2023-02-11T10:01:56;8.86;84.90
66035;HTU21D;52805;51.074;5.842;2023-02-11T10:07:57;8.82;85.05
66035;HTU21D;52805;51.074;5.842;2023-02-11T10:16:30;8.90;84.89
66035;HTU21D;52805;51.074;5.842;2023-02-11T10:19:20;8.93;84.85
66035;HTU21D;52805;51.074;5.842;2023-02-11T10:24:30;8.95;84.75
66035;HTU21D;52805;51.074;5.842;2023-02-11T10:26:57;8.97;84.84
66035;HTU21D;52805;51.074;5.842;2023-02-11T10:29:42;9.01;84.67
66035;HTU21D;52805;51.074;5.842;2023-02-11T10:32:30;9.02;84.63
66035;HTU21D;52805;51.074;5.842;2023-02-11T10:35:03;9.05;84.59
66035;HTU21D;52805;51.074;5.842;2023-02-11T10:37:34;9.07;84.42
66035;HTU21D;52805;51.074;5.842;2023-02-11T10:39:59;9.06;84.53
66035;HTU21D;52805;51.074;5.842;2023-02-11T10:42:26;9.07;84.55
66035;HTU21D;52805;51.074;5.842;2023-02-11T10:45:03;9.11;84.39
66035;HTU21D;52805;51.074;5.842;2023-02-11T10:47:35;9.14;84.27
66035;HTU21D;52805;51.074;5.842;2023-02-11T10:50:25;9.16;84.30
66035;HTU21D;52805;51.074;5.842;2023-02-11T10:52:51;9.18;84.42
66035;HTU21D;52805;51.074;5.842;2023-02-11T10:55:20;9.26;84.13
66035;HTU21D;52805;51.074;5.842;2023-02-11T10:58:00;9.27;84.03
66035;HTU21D;52805;51.074;5.842;2023-02-11T11:02:57;9.34;84.03
66035;HTU21D;52805;51.074;5.842;2023-02-11T11:05:47;9.39;83.93
66035;HTU21D;52805;51.074;5.842;2023-02-11T11:08:13;9.41;83.83
66035;HTU21D;52805;51.074;5.842;2023-02-11T11:10:42;9.46;83.65
66035;HTU21D;52805;51.074;5.842;2023-02-11T11:13:32;9.48;83.49
66035;HTU21D;52805;51.074;5.842;2023-02-11T11:16:32;9.48;83.63
66035;HTU21D;52805;51.074;5.842;2023-02-11T11:21:42;9.50;83.58
66035;HTU21D;52805;51.074;5.842;2023-02-11T11:26:57;9.55;83.55
66035;HTU21D;52805;51.074;5.842;2023-02-11T11:29:37;9.59;83.37
66035;HTU21D;52805;51.074;5.842;2023-02-11T11:34:55;9.57;83.41
66035;HTU21D;52805;51.074;5.842;2023-02-11T11:37:29;9.54;83.45
66035;HTU21D;52805;51.074;5.842;2023-02-11T11:42:31;9.48;83.69
66035;HTU21D;52805;51.074;5.842;2023-02-11T11:45:03;9.50;83.74
66035;HTU21D;52805;51.074;5.842;2023-02-11T11:50:46;9.51;83.77
66035;HTU21D;52805;51.074;5.842;2023-02-11T11:53:47;9.50;83.74
66035;HTU21D;52805;51.074;5.842;2023-02-11T11:56:26;9.51;83.83
66035;HTU21D;52805;51.074;5.842;2023-02-11T11:58:51;9.54;83.81
66035;HTU21D;52805;51.074;5.842;2023-02-11T12:01:33;9.54;83.85
66035;HTU21D;52805;51.074;5.842;2023-02-11T12:07:09;9.62;83.71
66035;HTU21D;52805;51.074;5.842;2023-02-11T12:10:27;9.61;83.79
66035;HTU21D;52805;51.074;5.842;2023-02-11T12:12:52;9.67;83.70
66035;HTU21D;52805;51.074;5.842;2023-02-11T12:15:33;9.68;83.61
66035;HTU21D;52805;51.074;5.842;2023-02-11T12:21:14;9.71;83.62
66035;HTU21D;52805;51.074;5.842;2023-02-11T12:26:30;9.79;83.52
66035;HTU21D;52805;51.074;5.842;2023-02-11T12:43:27;10.00;82.91
66035;HTU21D;52805;51.074;5.842;2023-02-11T12:46:07;9.98;82.91
66035;HTU21D;52805;51.074;5.842;2023-02-11T13:04:58;10.12;82.78
66035;HTU21D;52805;51.074;5.842;2023-02-11T13:07:32;10.14;82.68
66035;HTU21D;52805;51.074;5.842;2023-02-11T13:12:55;10.18;82.57
66035;HTU21D;52805;51.074;5.842;2023-02-11T13:15:47;10.18;82.52
66035;HTU21D;52805;51.074;5.842;2023-02-11T13:18:26;10.19;82.35
66035;HTU21D;52805;51.074;5.842;2023-02-11T13:30:02;10.13;82.62
66035;HTU21D;52805;51.074;5.842;2023-02-11T13:32:14;10.13;82.57
66035;HTU21D;52805;51.074;5.842;2023-02-11T13:37:20;10.11;82.59
66035;HTU21D;52805;51.074;5.842;2023-02-11T13:40:02;10.13;82.63
66035;HTU21D;52805;51.074;5.842;2023-02-11T13:42:48;10.15;82.63
66035;HTU21D;52805;51.074;5.842;2023-02-11T13:45:41;10.18;82.49
66035;HTU21D;52805;51.074;5.842;2023-02-11T13:48:21;10.16;82.62
66035;HTU21D;52805;51.074;5.842;2023-02-11T13:50:52;10.19;82.64
66035;HTU21D;52805;51.074;5.842;2023-02-11T13:53:19;10.25;82.55
66035;HTU21D;52805;51.074;5.842;2023-02-11T13:55:50;10.30;82.30
66035;HTU21D;52805;51.074;5.842;2023-02-11T14:00:54;10.31;82.22
66035;HTU21D;52805;51.074;5.842;2023-02-11T14:03:29;10.30;82.27
66035;HTU21D;52805;51.074;5.842;2023-02-11T14:06:19;10.30;82.20
66035;HTU21D;52805;51.074;5.842;2023-02-11T14:17:33;10.36;81.91
66035;HTU21D;52805;51.074;5.842;2023-02-11T14:20:02;10.36;81.85
66035;HTU21D;52805;51.074;5.842;2023-02-11T14:22:49;10.35;81.84
66035;HTU21D;52805;51.074;5.842;2023-02-11T14:25:23;10.33;81.91
66035;HTU21D;52805;51.074;5.842;2023-02-11T14:27:51;10.34;82.01
66035;HTU21D;52805;51.074;5.842;2023-02-11T14:30:42;10.38;81.97
66035;HTU21D;52805;51.074;5.842;2023-02-11T14:36:34;10.45;81.76
66035;HTU21D;52805;51.074;5.842;2023-02-11T14:39:20;10.45;81.68
66035;HTU21D;52805;51.074;5.842;2023-02-11T14:41:49;10.48;81.70
66035;HTU21D;52805;51.074;5.842;2023-02-11T14:44:30;10.49;81.72
66035;HTU21D;52805;51.074;5.842;2023-02-11T14:46:57;10.51;81.66
66035;HTU21D;52805;51.074;5.842;2023-02-11T14:49:36;10.51;81.59
66035;HTU21D;52805;51.074;5.842;2023-02-11T14:52:33;10.50;81.57
66035;HTU21D;52805;51.074;5.842;2023-02-11T14:58:10;10.52;81.56
66035;HTU21D;52805;51.074;5.842;2023-02-11T15:00:46;10.55;81.46
66035;HTU21D;52805;51.074;5.842;2023-02-11T15:03:38;10.50;81.47
66035;HTU21D;52805;51.074;5.842;2023-02-11T15:06:17;10.51;81.47
66035;HTU21D;52805;51.074;5.842;2023-02-11T15:09:32;10.50;81.50
66035;HTU21D;52805;51.074;5.842;2023-02-11T15:11:40;10.49;81.53
66035;HTU21D;52805;51.074;5.842;2023-02-11T15:14:14;10.46;81.59
66035;HTU21D;52805;51.074;5.842;2023-02-11T15:16:44;10.45;81.61
66035;HTU21D;52805;51.074;5.842;2023-02-11T15:21:56;10.42;81.80
66035;HTU21D;52805;51.074;5.842;2023-02-11T15:24:31;10.42;81.93
66035;HTU21D;52805;51.074;5.842;2023-02-11T15:27:02;10.43;81.89
66035;HTU21D;52805;51.074;5.842;2023-02-11T15:29:40;10.44;81.84
66035;HTU21D;52805;51.074;5.842;2023-02-11T15:32:13;10.43;81.91
66035;HTU21D;52805;51.074;5.842;2023-02-11T15:34:41;10.43;81.82
66035;HTU21D;52805;51.074;5.842;2023-02-11T15:37:13;10.42;81.84
66035;HTU21D;52805;51.074;5.842;2023-02-11T15:39:40;10.43;81.85
66035;HTU21D;52805;51.074;5.842;2023-02-11T15:42:25;10.43;81.86
66035;HTU21D;52805;51.074;5.842;2023-02-11T15:45:33;10.44;81.94
66035;HTU21D;52805;51.074;5.842;2023-02-11T15:50:42;10.42;81.93
66035;HTU21D;52805;51.074;5.842;2023-02-11T15:53:55;10.41;82.00
66035;HTU21D;52805;51.074;5.842;2023-02-11T15:56:24;10.41;82.01
66035;HTU21D;52805;51.074;5.842;2023-02-11T15:58:53;10.41;81.95
66035;HTU21D;52805;51.074;5.842;2023-02-11T16:01:30;10.38;82.04
66035;HTU21D;52805;51.074;5.842;2023-02-11T16:03:57;10.39;81.97
66035;HTU21D;52805;51.074;5.842;2023-02-11T16:06:26;10.35;82.07
66035;HTU21D;52805;51.074;5.842;2023-02-11T16:17:02;10.34;82.17
66035;HTU21D;52805;51.074;5.842;2023-02-11T16:19:30;10.34;82.17
66035;HTU21D;52805;51.074;5.842;2023-02-11T16:22:00;10.33;82.17
66035;HTU21D;52805;51.074;5.842;2023-02-11T16:24:30;10.34;82.14
66035;HTU21D;52805;51.074;5.842;2023-02-11T16:27:00;10.35;82.15
66035;HTU21D;52805;51.074;5.842;2023-02-11T16:29:32;10.33;82.01
66035;HTU21D;52805;51.074;5.842;2023-02-11T16:34:34;10.33;81.94
66035;HTU21D;52805;51.074;5.842;2023-02-11T16:37:03;10.30;82.01
66035;HTU21D;52805;51.074;5.842;2023-02-11T16:39:30;10.29;81.91
66035;HTU21D;52805;51.074;5.842;2023-02-11T16:41:55;10.24;82.03
66035;HTU21D;52805;51.074;5.842;2023-02-11T16:44:21;10.22;82.16
66035;HTU21D;52805;51.074;5.842;2023-02-11T16:46:48;10.20;82.23
66035;HTU21D;52805;51.074;5.842;2023-02-11T16:49:27;10.21;82.25
66035;HTU21D;52805;51.074;5.842;2023-02-11T16:51:57;10.20;82.26
66035;HTU21D;52805;51.074;5.842;2023-02-11T16:54:27;10.22;82.29
66035;HTU21D;52805;51.074;5.842;2023-02-11T16:56:53;10.21;82.23
66035;HTU21D;52805;51.074;5.842;2023-02-11T16:59:19;10.20;82.30
66035;HTU21D;52805;51.074;5.842;2023-02-11T17:01:48;10.20;82.32
66035;HTU21D;52805;51.074;5.842;2023-02-11T17:04:27;10.18;82.42
66035;HTU21D;52805;51.074;5.842;2023-02-11T17:06:55;10.18;82.41
66035;HTU21D;52805;51.074;5.842;2023-02-11T17:09:23;10.16;82.42
66035;HTU21D;52805;51.074;5.842;2023-02-11T17:11:50;10.16;82.44
66035;HTU21D;52805;51.074;5.842;2023-02-11T17:14:18;10.15;82.48
66035;HTU21D;52805;51.074;5.842;2023-02-11T17:16:45;10.14;82.51
66035;HTU21D;52805;51.074;5.842;2023-02-11T17:19:14;10.15;82.46
66035;HTU21D;52805;51.074;5.842;2023-02-11T17:21:45;10.14;82.49
66035;HTU21D;52805;51.074;5.842;2023-02-11T17:24:12;10.13;82.42
66035;HTU21D;52805;51.074;5.842;2023-02-11T17:26:38;10.12;82.42
66035;HTU21D;52805;51.074;5.842;2023-02-11T17:29:09;10.10;82.33
66035;HTU21D;52805;51.074;5.842;2023-02-11T17:31:36;10.07;82.40
66035;HTU21D;52805;51.074;5.842;2023-02-11T17:34:02;10.06;82.53
66035;HTU21D;52805;51.074;5.842;2023-02-11T17:36:28;10.05;82.49
66035;HTU21D;52805;51.074;5.842;2023-02-11T17:38:56;10.04;82.52
66035;HTU21D;52805;51.074;5.842;2023-02-11T17:41:23;10.03;82.51
66035;HTU21D;52805;51.074;5.842;2023-02-11T17:43:49;10.01;82.67
66035;HTU21D;52805;51.074;5.842;2023-02-11T17:46:15;9.99;82.78
66035;HTU21D;52805;51.074;5.842;2023-02-11T17:48:41;9.98;82.92
66035;HTU21D;52805;51.074;5.842;2023-02-11T17:51:23;9.97;83.06
66035;HTU21D;52805;51.074;5.842;2023-02-11T17:53:50;9.96;83.11
66035;HTU21D;52805;51.074;5.842;2023-02-11T17:56:16;9.96;83.16
66035;HTU21D;52805;51.074;5.842;2023-02-11T17:58:41;9.96;83.07
66035;HTU21D;52805;51.074;5.842;2023-02-11T18:01:07;9.98;83.08
66035;HTU21D;52805;51.074;5.842;2023-02-11T18:03:33;9.98;83.10
66035;HTU21D;52805;51.074;5.842;2023-02-11T18:06:05;9.97;83.13
66035;HTU21D;52805;51.074;5.842;2023-02-11T18:08:33;9.95;83.19
66035;HTU21D;52805;51.074;5.842;2023-02-11T18:10:59;9.99;83.17
66035;HTU21D;52805;51.074;5.842;2023-02-11T18:13:26;9.94;83.22
66035;HTU21D;52805;51.074;5.842;2023-02-11T18:15:52;9.94;83.31
66035;HTU21D;52805;51.074;5.842;2023-02-11T18:18:18;9.94;83.26
66035;HTU21D;52805;51.074;5.842;2023-02-11T18:20:44;9.95;83.30
66035;HTU21D;52805;51.074;5.842;2023-02-11T18:23:11;9.93;83.18
66035;HTU21D;52805;51.074;5.842;2023-02-11T18:25:41;9.91;83.37
66035;HTU21D;52805;51.074;5.842;2023-02-11T18:28:07;9.90;83.41